^^
Station Historical Data
Daily Summary for February 2, 2018 Units:  Both    English   Metric
« Previous Day
Next Day »
Daily Weekly Monthly Yearly Custom
  High: Low: Average:
Temperature: TemperatureF °F /  -17.8 °C 63.5 °F /  17.5 °C 78.3 °F /  25.7 °C
Dew Point: DewpointF °F /  -17.8 °C 36.9 °F /  2.7 °C 45.8 °F /  7.7 °C
Humidity: Humidity% 17% 34%
Wind Speed: WindSpeedMPHmph /  0km/h - 1.2mph /  1.9km/h
Wind Gust: WindSpeedGustMPHmph /  0km/h - -
Wind- - South
Pressure: PressureIn in /  0 hPa 29.54 in /  1000.2 hPa -
Precipitation: 0.00 in /  0 mm    
Historical Graphs
 
 
Tabular Data for February 2, 2018
Time Temperature Dew Point Pressure Wind Wind Speed Wind Gust Humidity Rainfall Rate (Hourly) solar Conditions
TemperatureF °F /  -17.8 °C DewpointF °F /  -17.8 °C PressureInin /  0hPa Calm     Humidity% HourlyPrecipInin /  0mm SolarRadiationWatts/m^2 W/m2 Conditions
00:04 71.6 °F /  22 °C 51.4 °F /  10.8 °C 29.63in /  1003.3hPa Calm     49% 0.00in /  0mm 0.0 W/m2
00:09 71.6 °F /  22 °C 50.9 °F /  10.5 °C 29.63in /  1003.3hPa Calm     48% 0.00in /  0mm 0.0 W/m2
00:14 71.6 °F /  22 °C 51.4 °F /  10.8 °C 29.63in /  1003.3hPa Calm     49% 0.00in /  0mm 0.0 W/m2
00:20 71.6 °F /  22 °C 52.0 °F /  11.1 °C 29.63in /  1003.3hPa Calm     50% 0.00in /  0mm 0.0 W/m2
00:25 71.6 °F /  22 °C 52.0 °F /  11.1 °C 29.63in /  1003.3hPa Calm     50% 0.00in /  0mm 0.0 W/m2
00:30 71.6 °F /  22 °C 52.0 °F /  11.1 °C 29.63in /  1003.3hPa Calm     50% 0.00in /  0mm 0.0 W/m2
00:35 71.4 °F /  21.9 °C 51.3 °F /  10.7 °C 29.63in /  1003.3hPa Calm     49% 0.00in /  0mm 0.0 W/m2
00:40 71.4 °F /  21.9 °C 51.8 °F /  11 °C 29.63in /  1003.3hPa Calm     50% 0.00in /  0mm 0.0 W/m2
00:45 71.4 °F /  21.9 °C 51.8 °F /  11 °C 29.63in /  1003.3hPa Calm     50% 0.00in /  0mm 0.0 W/m2
00:50 71.4 °F /  21.9 °C 51.8 °F /  11 °C 29.63in /  1003.3hPa Calm     50% 0.00in /  0mm 0.0 W/m2
00:55 71.2 °F /  21.8 °C 51.6 °F /  10.9 °C 29.63in /  1003.3hPa Calm   1.0mph /  1.6km/h 50% 0.00in /  0mm 0.0 W/m2
01:00 71.2 °F /  21.8 °C 51.6 °F /  10.9 °C 29.63in /  1003.3hPa Calm   1.0mph /  1.6km/h 50% 0.00in /  0mm 0.0 W/m2
01:06 71.1 °F /  21.7 °C 51.4 °F /  10.8 °C 29.63in /  1003.3hPa Calm   1.0mph /  1.6km/h 50% 0.00in /  0mm 0.0 W/m2
01:11 71.1 °F /  21.7 °C 51.4 °F /  10.8 °C 29.63in /  1003.3hPa Calm   1.0mph /  1.6km/h 50% 0.00in /  0mm 0.0 W/m2
01:16 71.1 °F /  21.7 °C 51.4 °F /  10.8 °C 29.63in /  1003.3hPa Calm   1.0mph /  1.6km/h 50% 0.00in /  0mm 0.0 W/m2
01:21 71.1 °F /  21.7 °C 51.4 °F /  10.8 °C 29.63in /  1003.3hPa Calm   1.0mph /  1.6km/h 50% 0.00in /  0mm 0.0 W/m2
01:27 70.9 °F /  21.6 °C 51.3 °F /  10.7 °C 29.62in /  1002.9hPa Calm     50% 0.00in /  0mm 0.0 W/m2
01:32 70.9 °F /  21.6 °C 51.3 °F /  10.7 °C 29.62in /  1002.9hPa Calm     50% 0.00in /  0mm 0.0 W/m2
01:38 70.9 °F /  21.6 °C 51.3 °F /  10.7 °C 29.62in /  1002.9hPa Calm     50% 0.00in /  0mm 0.0 W/m2
01:43 70.7 °F /  21.5 °C 51.1 °F /  10.6 °C 29.62in /  1002.9hPa Calm     50% 0.00in /  0mm 0.0 W/m2
01:48 70.5 °F /  21.4 °C 50.4 °F /  10.2 °C 29.61in /  1002.6hPa Calm     49% 0.00in /  0mm 0.0 W/m2
01:54 70.5 °F /  21.4 °C 49.3 °F /  9.6 °C 29.61in /  1002.6hPa Calm     47% 0.00in /  0mm 0.0 W/m2
01:59 70.3 °F /  21.3 °C 49.6 °F /  9.8 °C 29.61in /  1002.6hPa Calm     48% 0.00in /  0mm 0.0 W/m2
02:04 70.3 °F /  21.3 °C 50.4 °F /  10.2 °C 29.61in /  1002.6hPa Calm     49% 0.00in /  0mm 0.0 W/m2
02:10 70.2 °F /  21.2 °C 50.7 °F /  10.4 °C 29.61in /  1002.6hPa Calm   1.0mph /  1.6km/h 50% 0.00in /  0mm 0.0 W/m2
02:15 70.0 °F /  21.1 °C 49.5 °F /  9.7 °C 29.61in /  1002.6hPa Calm     48% 0.00in /  0mm 0.0 W/m2
02:20 70.0 °F /  21.1 °C 47.1 °F /  8.4 °C 29.60in /  1002.3hPa Calm     44% 0.00in /  0mm 0.0 W/m2
02:25 69.6 °F /  20.9 °C 45.5 °F /  7.5 °C 29.61in /  1002.6hPa Calm     42% 0.00in /  0mm 0.0 W/m2
02:30 69.6 °F /  20.9 °C 45.5 °F /  7.5 °C 29.61in /  1002.6hPa Calm     42% 0.00in /  0mm 0.0 W/m2
02:35 69.4 °F /  20.8 °C 45.3 °F /  7.4 °C 29.61in /  1002.6hPa Calm   1.0mph /  1.6km/h 42% 0.00in /  0mm 0.0 W/m2
02:40 69.4 °F /  20.8 °C 46.0 °F /  7.8 °C 29.61in /  1002.6hPa Calm     43% 0.00in /  0mm 0.0 W/m2
02:45 69.3 °F /  20.7 °C 45.1 °F /  7.3 °C 29.60in /  1002.3hPa Calm   2.0mph /  3.2km/h 42% 0.00in /  0mm 0.0 W/m2
02:51 69.3 °F /  20.7 °C 43.9 °F /  6.6 °C 29.60in /  1002.3hPa Calm   1.0mph /  1.6km/h 40% 0.00in /  0mm 0.0 W/m2
02:56 69.1 °F /  20.6 °C 43.7 °F /  6.5 °C 29.60in /  1002.3hPa Calm     40% 0.00in /  0mm 0.0 W/m2
03:01 68.9 °F /  20.5 °C 44.8 °F /  7.1 °C 29.60in /  1002.3hPa Calm     42% 0.00in /  0mm 0.0 W/m2
03:07 68.7 °F /  20.4 °C 44.8 °F /  7.1 °C 29.60in /  1002.3hPa Calm     42% 0.00in /  0mm 0.0 W/m2
03:12 68.5 °F /  20.3 °C 45.1 °F /  7.3 °C 29.60in /  1002.3hPa Calm     43% 0.00in /  0mm 0.0 W/m2
03:17 68.4 °F /  20.2 °C 45.0 °F /  7.2 °C 29.60in /  1002.3hPa Calm     43% 0.00in /  0mm 0.0 W/m2
03:23 68.2 °F /  20.1 °C 44.2 °F /  6.8 °C 29.60in /  1002.3hPa Calm     42% 0.00in /  0mm 0.0 W/m2
03:28 67.8 °F /  19.9 °C 44.4 °F /  6.9 °C 29.60in /  1002.3hPa Calm   2.0mph /  3.2km/h 43% 0.00in /  0mm 0.0 W/m2
03:33 67.8 °F /  19.9 °C 45.1 °F /  7.3 °C 29.61in /  1002.6hPa Calm   1.0mph /  1.6km/h 44% 0.00in /  0mm 0.0 W/m2
03:38 67.6 °F /  19.8 °C 45.0 °F /  7.2 °C 29.60in /  1002.3hPa Calm   1.0mph /  1.6km/h 44% 0.00in /  0mm 0.0 W/m2
03:43 67.5 °F /  19.7 °C 45.3 °F /  7.4 °C 29.60in /  1002.3hPa Calm   1.0mph /  1.6km/h 45% 0.00in /  0mm 0.0 W/m2
03:49 67.3 °F /  19.6 °C 45.1 °F /  7.3 °C 29.60in /  1002.3hPa Calm     45% 0.00in /  0mm 0.0 W/m2
03:54 67.3 °F /  19.6 °C 45.1 °F /  7.3 °C 29.60in /  1002.3hPa Calm     45% 0.00in /  0mm 0.0 W/m2
03:59 67.1 °F /  19.5 °C 45.7 °F /  7.6 °C 29.60in /  1002.3hPa NE 0.9mph /  1.4km/h 2.0mph /  3.2km/h 46% 0.00in /  0mm 0.0 W/m2
04:05 66.9 °F /  19.4 °C 45.5 °F /  7.5 °C 29.59in /  1001.9hPa Calm     46% 0.00in /  0mm 0.0 W/m2
04:10 66.7 °F /  19.3 °C 45.9 °F /  7.7 °C 29.59in /  1001.9hPa Calm   1.0mph /  1.6km/h 47% 0.00in /  0mm 0.0 W/m2
04:15 66.6 °F /  19.2 °C 45.7 °F /  7.6 °C 29.59in /  1001.9hPa Calm   2.0mph /  3.2km/h 47% 0.00in /  0mm 0.0 W/m2
04:20 66.6 °F /  19.2 °C 46.2 °F /  7.9 °C 29.59in /  1001.9hPa Calm     48% 0.00in /  0mm 0.0 W/m2
04:25 66.6 °F /  19.2 °C 46.2 °F /  7.9 °C 29.59in /  1001.9hPa Calm   1.0mph /  1.6km/h 48% 0.00in /  0mm 0.0 W/m2
04:30 66.6 °F /  19.2 °C 46.8 °F /  8.2 °C 29.59in /  1001.9hPa Calm     49% 0.00in /  0mm 0.0 W/m2
04:35 66.6 °F /  19.2 °C 47.3 °F /  8.5 °C 29.60in /  1002.3hPa Calm     50% 0.00in /  0mm 0.0 W/m2
04:40 66.6 °F /  19.2 °C 47.3 °F /  8.5 °C 29.59in /  1001.9hPa Calm     50% 0.00in /  0mm 0.0 W/m2
04:46 66.6 °F /  19.2 °C 45.7 °F /  7.6 °C 29.60in /  1002.3hPa ESE 0.9mph /  1.4km/h 1.0mph /  1.6km/h 47% 0.00in /  0mm 0.0 W/m2
04:51 66.6 °F /  19.2 °C 45.1 °F /  7.3 °C 29.60in /  1002.3hPa Calm     46% 0.00in /  0mm 0.0 W/m2
04:56 66.6 °F /  19.2 °C 44.6 °F /  7 °C 29.60in /  1002.3hPa Calm   1.0mph /  1.6km/h 45% 0.00in /  0mm 0.0 W/m2
05:02 66.4 °F /  19.1 °C 45.0 °F /  7.2 °C 29.60in /  1002.3hPa Calm     46% 0.00in /  0mm 0.0 W/m2
05:07 66.4 °F /  19.1 °C 44.4 °F /  6.9 °C 29.60in /  1002.3hPa Calm   1.0mph /  1.6km/h 45% 0.00in /  0mm 0.0 W/m2
05:13 66.0 °F /  18.9 °C 44.6 °F /  7 °C 29.61in /  1002.6hPa Calm   1.0mph /  1.6km/h 46% 0.00in /  0mm 0.0 W/m2
05:19 65.8 °F /  18.8 °C 45.7 °F /  7.6 °C 29.61in /  1002.6hPa East 0.9mph /  1.4km/h 3.0mph /  4.8km/h 48% 0.00in /  0mm 0.0 W/m2
05:24 65.7 °F /  18.7 °C 45.5 °F /  7.5 °C 29.61in /  1002.6hPa ENE 0.9mph /  1.4km/h 4.0mph /  6.4km/h 48% 0.00in /  0mm 0.0 W/m2
05:29 65.7 °F /  18.7 °C 46.0 °F /  7.8 °C 29.61in /  1002.6hPa East 2.0mph /  3.2km/h 3.0mph /  4.8km/h 49% 0.00in /  0mm 0.0 W/m2
05:35 65.5 °F /  18.6 °C 47.5 °F /  8.6 °C 29.61in /  1002.6hPa Calm   2.0mph /  3.2km/h 52% 0.00in /  0mm 0.0 W/m2
05:40 65.3 °F /  18.5 °C 47.7 °F /  8.7 °C 29.62in /  1002.9hPa Calm     53% 0.00in /  0mm 0.0 W/m2
05:45 65.1 °F /  18.4 °C 47.1 °F /  8.4 °C 29.62in /  1002.9hPa Calm     52% 0.00in /  0mm 0.0 W/m2
05:51 64.9 °F /  18.3 °C 47.5 °F /  8.6 °C 29.62in /  1002.9hPa SE 0.9mph /  1.4km/h 4.0mph /  6.4km/h 53% 0.00in /  0mm 0.0 W/m2
05:56 64.8 °F /  18.2 °C 46.8 °F /  8.2 °C 29.62in /  1002.9hPa SE 0.9mph /  1.4km/h 2.0mph /  3.2km/h 52% 0.00in /  0mm 0.0 W/m2
06:01 64.8 °F /  18.2 °C 47.3 °F /  8.5 °C 29.62in /  1002.9hPa Calm   2.0mph /  3.2km/h 53% 0.00in /  0mm 0.0 W/m2
06:07 64.6 °F /  18.1 °C 47.1 °F /  8.4 °C 29.62in /  1002.9hPa Calm     53% 0.00in /  0mm 0.0 W/m2
06:13 64.6 °F /  18.1 °C 47.1 °F /  8.4 °C 29.62in /  1002.9hPa Calm     53% 0.00in /  0mm 0.0 W/m2
06:18 64.6 °F /  18.1 °C 47.1 °F /  8.4 °C 29.62in /  1002.9hPa Calm   1.0mph /  1.6km/h 53% 0.00in /  0mm 0.0 W/m2
06:24 64.2 °F /  17.9 °C 46.8 °F /  8.2 °C 29.63in /  1003.3hPa Calm   1.0mph /  1.6km/h 53% 0.00in /  0mm 0.0 W/m2
06:29 64.0 °F /  17.8 °C 46.0 °F /  7.8 °C 29.63in /  1003.3hPa Calm   1.0mph /  1.6km/h 52% 0.00in /  0mm 0.0 W/m2
06:34 64.0 °F /  17.8 °C 46.0 °F /  7.8 °C 29.63in /  1003.3hPa Calm   1.0mph /  1.6km/h 52% 0.00in /  0mm 0.0 W/m2
06:39 63.9 °F /  17.7 °C 46.4 °F /  8 °C 29.63in /  1003.3hPa Calm     53% 0.00in /  0mm 7.0 W/m2
06:44 63.9 °F /  17.7 °C 46.4 °F /  8 °C 29.63in /  1003.3hPa Calm     53% 0.00in /  0mm 9.0 W/m2
06:49 63.7 °F /  17.6 °C 46.2 °F /  7.9 °C 29.63in /  1003.3hPa Calm     53% 0.00in /  0mm 14.0 W/m2
06:54 63.7 °F /  17.6 °C 46.8 °F /  8.2 °C 29.63in /  1003.3hPa Calm   1.0mph /  1.6km/h 54% 0.00in /  0mm 21.0 W/m2
06:59 63.5 °F /  17.5 °C 46.6 °F /  8.1 °C 29.64in /  1003.6hPa Calm     54% 0.00in /  0mm 25.0 W/m2
07:05 63.5 °F /  17.5 °C 46.6 °F /  8.1 °C 29.64in /  1003.6hPa Calm     54% 0.00in /  0mm 32.0 W/m2
07:10 63.7 °F /  17.6 °C 46.8 °F /  8.2 °C 29.64in /  1003.6hPa Calm     54% 0.00in /  0mm 39.0 W/m2
07:15 63.7 °F /  17.6 °C 46.8 °F /  8.2 °C 29.64in /  1003.6hPa Calm     54% 0.00in /  0mm 42.0 W/m2
07:20 63.9 °F /  17.7 °C 46.9 °F /  8.3 °C 29.65in /  1003.9hPa Calm   3.0mph /  4.8km/h 54% 0.00in /  0mm 26.0 W/m2
07:25 64.0 °F /  17.8 °C 47.1 °F /  8.4 °C 29.65in /  1003.9hPa Calm   2.0mph /  3.2km/h 54% 0.00in /  0mm 23.0 W/m2
07:30 64.4 °F /  18 °C 46.9 °F /  8.3 °C 29.65in /  1003.9hPa Calm   3.0mph /  4.8km/h 53% 0.00in /  0mm 23.0 W/m2
07:35 64.8 °F /  18.2 °C 47.7 °F /  8.7 °C 29.65in /  1003.9hPa Calm   1.0mph /  1.6km/h 54% 0.00in /  0mm 26.0 W/m2
07:40 64.9 °F /  18.3 °C 47.5 °F /  8.6 °C 29.65in /  1003.9hPa Calm   1.0mph /  1.6km/h 53% 0.00in /  0mm 30.0 W/m2
07:46 65.1 °F /  18.4 °C 47.5 °F /  8.6 °C 29.65in /  1003.9hPa ENE 0.9mph /  1.4km/h 1.0mph /  1.6km/h 53% 0.00in /  0mm 25.0 W/m2
07:51 65.1 °F /  18.4 °C 48.0 °F /  8.9 °C 29.65in /  1003.9hPa Calm   1.0mph /  1.6km/h 54% 0.00in /  0mm 28.0 W/m2
07:56 65.3 °F /  18.5 °C 47.7 °F /  8.7 °C 29.65in /  1003.9hPa Calm     53% 0.00in /  0mm 33.0 W/m2
08:01 65.3 °F /  18.5 °C 48.2 °F /  9 °C 29.65in /  1003.9hPa ENE 0.9mph /  1.4km/h 1.0mph /  1.6km/h 54% 0.00in /  0mm 40.0 W/m2
08:06 65.5 °F /  18.6 °C 47.8 °F /  8.8 °C 29.65in /  1003.9hPa Calm     53% 0.00in /  0mm 44.0 W/m2
08:11 65.7 °F /  18.7 °C 48.6 °F /  9.2 °C 29.65in /  1003.9hPa Calm     54% 0.00in /  0mm 77.0 W/m2
08:16 65.8 °F /  18.8 °C 48.2 °F /  9 °C 29.65in /  1003.9hPa Calm     53% 0.00in /  0mm 346.0 W/m2
08:22 66.2 °F /  19 °C 46.4 °F /  8 °C 29.65in /  1003.9hPa Calm     49% 0.00in /  0mm 388.0 W/m2
08:27 66.9 °F /  19.4 °C 45.0 °F /  7.2 °C 29.65in /  1003.9hPa Calm   1.0mph /  1.6km/h 45% 0.00in /  0mm 411.0 W/m2
08:32 68.0 °F /  20 °C 43.3 °F /  6.3 °C 29.65in /  1003.9hPa SSW 0.9mph /  1.4km/h 3.0mph /  4.8km/h 41% 0.00in /  0mm 427.0 W/m2
08:38 69.3 °F /  20.7 °C 41.2 °F /  5.1 °C 29.65in /  1003.9hPa Calm   4.0mph /  6.4km/h 36% 0.00in /  0mm 452.0 W/m2
08:43 70.3 °F /  21.3 °C 40.6 °F /  4.8 °C 29.65in /  1003.9hPa Calm   2.0mph /  3.2km/h 34% 0.00in /  0mm 466.0 W/m2
08:49 71.8 °F /  22.1 °C 40.3 °F /  4.6 °C 29.65in /  1003.9hPa SW 0.9mph /  1.4km/h 3.0mph /  4.8km/h 32% 0.00in /  0mm 494.0 W/m2
08:54 73.0 °F /  22.8 °C 38.8 °F /  3.8 °C 29.65in /  1003.9hPa Calm   3.0mph /  4.8km/h 29% 0.00in /  0mm 515.0 W/m2
08:59 74.5 °F /  23.6 °C 40.1 °F /  4.5 °C 29.66in /  1004.3hPa SSE 0.9mph /  1.4km/h 4.0mph /  6.4km/h 29% 0.00in /  0mm 538.0 W/m2
09:04 75.6 °F /  24.2 °C 41.0 °F /  5 °C 29.65in /  1003.9hPa SE 0.9mph /  1.4km/h 2.0mph /  3.2km/h 29% 0.00in /  0mm 557.0 W/m2
09:09 76.6 °F /  24.8 °C 40.1 °F /  4.5 °C 29.65in /  1003.9hPa Calm   3.0mph /  4.8km/h 27% 0.00in /  0mm 575.0 W/m2
09:14 77.4 °F /  25.2 °C 40.8 °F /  4.9 °C 29.66in /  1004.3hPa SE 2.0mph /  3.2km/h 3.0mph /  4.8km/h 27% 0.00in /  0mm 596.0 W/m2
09:19 78.3 °F /  25.7 °C 40.6 °F /  4.8 °C 29.66in /  1004.3hPa South 2.0mph /  3.2km/h 4.0mph /  6.4km/h 26% 0.00in /  0mm 531.0 W/m2
09:25 78.6 °F /  25.9 °C 39.9 °F /  4.4 °C 29.66in /  1004.3hPa Calm   6.0mph /  9.7km/h 25% 0.00in /  0mm 635.0 W/m2
09:30 79.0 °F /  26.1 °C 41.2 °F /  5.1 °C 29.66in /  1004.3hPa Calm   1.0mph /  1.6km/h 26% 0.00in /  0mm 652.0 W/m2
09:35 79.5 °F /  26.4 °C 42.6 °F /  5.9 °C 29.66in /  1004.3hPa West 2.0mph /  3.2km/h 3.0mph /  4.8km/h 27% 0.00in /  0mm 663.0 W/m2
09:41 80.1 °F /  26.7 °C 42.1 °F /  5.6 °C 29.66in /  1004.3hPa NNW 0.9mph /  1.4km/h 2.0mph /  3.2km/h 26% 0.00in /  0mm 682.0 W/m2
09:46 80.4 °F /  26.9 °C 41.4 °F /  5.2 °C 29.67in /  1004.6hPa WSW 0.9mph /  1.4km/h 8.0mph /  12.9km/h 25% 0.00in /  0mm 701.0 W/m2
09:51 80.2 °F /  26.8 °C 42.3 °F /  5.7 °C 29.67in /  1004.6hPa SSW 2.0mph /  3.2km/h 3.0mph /  4.8km/h 26% 0.00in /  0mm 686.0 W/m2
09:56 80.8 °F /  27.1 °C 42.6 °F /  5.9 °C 29.67in /  1004.6hPa ESE 0.9mph /  1.4km/h 2.0mph /  3.2km/h 26% 0.00in /  0mm 742.0 W/m2
10:01 81.3 °F /  27.4 °C 43.2 °F /  6.2 °C 29.67in /  1004.6hPa ENE 2.0mph /  3.2km/h 5.0mph /  8km/h 26% 0.00in /  0mm 707.0 W/m2
10:06 82.2 °F /  27.9 °C 43.9 °F /  6.6 °C 29.67in /  1004.6hPa SE 2.9mph /  4.7km/h 6.0mph /  9.7km/h 26% 0.00in /  0mm 545.0 W/m2
10:11 82.6 °F /  28.1 °C 44.2 °F /  6.8 °C 29.67in /  1004.6hPa ESE 2.0mph /  3.2km/h 5.0mph /  8km/h 26% 0.00in /  0mm 786.0 W/m2
10:16 82.8 °F /  28.2 °C 45.3 °F /  7.4 °C 29.66in /  1004.3hPa Calm   4.0mph /  6.4km/h 27% 0.00in /  0mm 795.0 W/m2
10:21 83.1 °F /  28.4 °C 45.7 °F /  7.6 °C 29.66in /  1004.3hPa SSE 2.9mph /  4.7km/h 5.0mph /  8km/h 27% 0.00in /  0mm 812.0 W/m2
10:26 83.5 °F /  28.6 °C 46.0 °F /  7.8 °C 29.66in /  1004.3hPa ENE 2.9mph /  4.7km/h 8.0mph /  12.9km/h 27% 0.00in /  0mm 826.0 W/m2
10:31 83.8 °F /  28.8 °C 45.3 °F /  7.4 °C 29.66in /  1004.3hPa East 2.0mph /  3.2km/h 2.0mph /  3.2km/h 26% 0.00in /  0mm 842.0 W/m2
10:37 84.4 °F /  29.1 °C 45.7 °F /  7.6 °C 29.66in /  1004.3hPa NNE 6.9mph /  11.1km/h 7.0mph /  11.3km/h 26% 0.00in /  0mm 858.0 W/m2
10:42 84.6 °F /  29.2 °C 45.9 °F /  7.7 °C 29.67in /  1004.6hPa ENE 2.0mph /  3.2km/h 5.0mph /  8km/h 26% 0.00in /  0mm 708.0 W/m2
10:47 84.7 °F /  29.3 °C 46.0 °F /  7.8 °C 29.66in /  1004.3hPa Calm   3.0mph /  4.8km/h 26% 0.00in /  0mm 972.0 W/m2
10:53 84.9 °F /  29.4 °C 45.1 °F /  7.3 °C 29.66in /  1004.3hPa Calm   6.0mph /  9.7km/h 25% 0.00in /  0mm 918.0 W/m2
10:58 85.3 °F /  29.6 °C 46.6 °F /  8.1 °C 29.65in /  1003.9hPa Calm   4.0mph /  6.4km/h 26% 0.00in /  0mm 912.0 W/m2
11:04 86.0 °F /  30 °C 46.0 °F /  7.8 °C 29.65in /  1003.9hPa NW 0.9mph /  1.4km/h 7.0mph /  11.3km/h 25% 0.00in /  0mm 935.0 W/m2
11:09 86.4 °F /  30.2 °C 45.3 °F /  7.4 °C 29.65in /  1003.9hPa East 0.9mph /  1.4km/h 5.0mph /  8km/h 24% 0.00in /  0mm 860.0 W/m2
11:14 86.5 °F /  30.3 °C 46.6 °F /  8.1 °C 29.65in /  1003.9hPa Calm   8.0mph /  12.9km/h 25% 0.00in /  0mm 956.0 W/m2
11:19 87.1 °F /  30.6 °C 46.9 °F /  8.3 °C 29.65in /  1003.9hPa NW 2.0mph /  3.2km/h 5.0mph /  8km/h 25% 0.00in /  0mm 842.0 W/m2
11:24 87.4 °F /  30.8 °C 46.2 °F /  7.9 °C 29.65in /  1003.9hPa Calm   3.0mph /  4.8km/h 24% 0.00in /  0mm 983.0 W/m2
11:29 87.4 °F /  30.8 °C 46.2 °F /  7.9 °C 29.65in /  1003.9hPa WNW 2.9mph /  4.7km/h 7.0mph /  11.3km/h 24% 0.00in /  0mm 1002.0 W/m2
11:34 87.4 °F /  30.8 °C 46.2 °F /  7.9 °C 29.65in /  1003.9hPa NNW 4.9mph /  7.9km/h 10.0mph /  16.1km/h 24% 0.00in /  0mm 1027.0 W/m2
11:40 87.4 °F /  30.8 °C 46.2 °F /  7.9 °C 29.65in /  1003.9hPa NNE 2.9mph /  4.7km/h 9.0mph /  14.5km/h 24% 0.00in /  0mm 997.0 W/m2
11:45 87.6 °F /  30.9 °C 46.4 °F /  8 °C 29.65in /  1003.9hPa Calm   1.0mph /  1.6km/h 24% 0.00in /  0mm 1007.0 W/m2
11:50 88.0 °F /  31.1 °C 46.6 °F /  8.1 °C 29.65in /  1003.9hPa Calm   3.0mph /  4.8km/h 24% 0.00in /  0mm 1062.0 W/m2
11:55 88.2 °F /  31.2 °C 45.7 °F /  7.6 °C 29.65in /  1003.9hPa SSE 0.9mph /  1.4km/h 7.0mph /  11.3km/h 23% 0.00in /  0mm 1039.0 W/m2
12:00 88.3 °F /  31.3 °C 46.9 °F /  8.3 °C 29.65in /  1003.9hPa SE 4.0mph /  6.4km/h 7.0mph /  11.3km/h 24% 0.00in /  0mm 1025.0 W/m2
12:05 88.3 °F /  31.3 °C 45.9 °F /  7.7 °C 29.64in /  1003.6hPa SSW 0.9mph /  1.4km/h 6.0mph /  9.7km/h 23% 0.00in /  0mm 1025.0 W/m2
12:10 87.8 °F /  31 °C 45.3 °F /  7.4 °C 29.64in /  1003.6hPa Calm   5.0mph /  8km/h 23% 0.00in /  0mm 1079.0 W/m2
12:15 88.3 °F /  31.3 °C 45.9 °F /  7.7 °C 29.64in /  1003.6hPa WNW 2.9mph /  4.7km/h 3.0mph /  4.8km/h 23% 0.00in /  0mm 1099.0 W/m2
12:21 89.1 °F /  31.7 °C 45.3 °F /  7.4 °C 29.64in /  1003.6hPa WNW 2.0mph /  3.2km/h 3.0mph /  4.8km/h 22% 0.00in /  0mm 1139.0 W/m2
12:26 89.4 °F /  31.9 °C 45.5 °F /  7.5 °C 29.64in /  1003.6hPa NE 4.0mph /  6.4km/h 7.0mph /  11.3km/h 22% 0.00in /  0mm 1139.0 W/m2
12:31 89.4 °F /  31.9 °C 45.5 °F /  7.5 °C 29.64in /  1003.6hPa Calm   6.0mph /  9.7km/h 22% 0.00in /  0mm 1150.0 W/m2
12:36 89.8 °F /  32.1 °C 45.9 °F /  7.7 °C 29.63in /  1003.3hPa East 0.9mph /  1.4km/h 6.0mph /  9.7km/h 22% 0.00in /  0mm 1181.0 W/m2
12:41 90.0 °F /  32.2 °C 44.8 °F /  7.1 °C 29.63in /  1003.3hPa Calm   3.0mph /  4.8km/h 21% 0.00in /  0mm 1085.0 W/m2
12:46 90.0 °F /  32.2 °C 46.0 °F /  7.8 °C 29.63in /  1003.3hPa NNE 2.9mph /  4.7km/h 4.0mph /  6.4km/h 22% 0.00in /  0mm 360.0 W/m2
12:51 90.0 °F /  32.2 °C 44.8 °F /  7.1 °C 29.63in /  1003.3hPa NNE 2.0mph /  3.2km/h 6.0mph /  9.7km/h 21% 0.00in /  0mm 1199.0 W/m2
12:56 90.0 °F /  32.2 °C 46.0 °F /  7.8 °C 29.63in /  1003.3hPa North 0.9mph /  1.4km/h 4.0mph /  6.4km/h 22% 0.00in /  0mm 1259.0 W/m2
13:01 90.0 °F /  32.2 °C 46.0 °F /  7.8 °C 29.63in /  1003.3hPa East 2.0mph /  3.2km/h 5.0mph /  8km/h 22% 0.00in /  0mm 729.0 W/m2
13:06 89.8 °F /  32.1 °C 44.6 °F /  7 °C 29.63in /  1003.3hPa NE 2.9mph /  4.7km/h 7.0mph /  11.3km/h 21% 0.00in /  0mm 1250.0 W/m2
13:11 90.3 °F /  32.4 °C 45.1 °F /  7.3 °C 29.62in /  1002.9hPa West 0.9mph /  1.4km/h 4.0mph /  6.4km/h 21% 0.00in /  0mm 1178.0 W/m2
13:16 90.1 °F /  32.3 °C 45.0 °F /  7.2 °C 29.62in /  1002.9hPa WNW 2.0mph /  3.2km/h 4.0mph /  6.4km/h 21% 0.00in /  0mm 246.0 W/m2
13:21 89.8 °F /  32.1 °C 44.6 °F /  7 °C 29.62in /  1002.9hPa Calm   1.0mph /  1.6km/h 21% 0.00in /  0mm 260.0 W/m2
13:27 89.8 °F /  32.1 °C 45.9 °F /  7.7 °C 29.62in /  1002.9hPa NNW 0.9mph /  1.4km/h 2.0mph /  3.2km/h 22% 0.00in /  0mm 285.0 W/m2
13:32 89.4 °F /  31.9 °C 44.4 °F /  6.9 °C 29.62in /  1002.9hPa South 6.0mph /  9.7km/h 8.0mph /  12.9km/h 21% 0.00in /  0mm 299.0 W/m2
13:37 88.5 °F /  31.4 °C 44.8 °F /  7.1 °C 29.62in /  1002.9hPa SW 0.9mph /  1.4km/h 3.0mph /  4.8km/h 22% 0.00in /  0mm 1241.0 W/m2
13:42 88.7 °F /  31.5 °C 45.0 °F /  7.2 °C 29.61in /  1002.6hPa South 2.0mph /  3.2km/h 6.0mph /  9.7km/h 22% 0.00in /  0mm 1187.0 W/m2
13:47 88.9 °F /  31.6 °C 45.1 °F /  7.3 °C 29.61in /  1002.6hPa WSW 0.9mph /  1.4km/h 8.0mph /  12.9km/h 22% 0.00in /  0mm 232.0 W/m2
13:52 88.5 °F /  31.4 °C 44.8 °F /  7.1 °C 29.61in /  1002.6hPa South 4.0mph /  6.4km/h 4.0mph /  6.4km/h 22% 0.00in /  0mm 246.0 W/m2
13:57 88.0 °F /  31.1 °C 44.4 °F /  6.9 °C 29.61in /  1002.6hPa Calm   6.0mph /  9.7km/h 22% 0.00in /  0mm 278.0 W/m2
14:02 88.0 °F /  31.1 °C 44.4 °F /  6.9 °C 29.60in /  1002.3hPa WSW 0.9mph /  1.4km/h 5.0mph /  8km/h 22% 0.00in /  0mm 1155.0 W/m2
14:07 88.2 °F /  31.2 °C 44.6 °F /  7 °C 29.60in /  1002.3hPa SE 2.9mph /  4.7km/h 6.0mph /  9.7km/h 22% 0.00in /  0mm 1014.0 W/m2
14:12 89.1 °F /  31.7 °C 44.1 °F /  6.7 °C 29.60in /  1002.3hPa SSW 4.9mph /  7.9km/h 7.0mph /  11.3km/h 21% 0.00in /  0mm 1035.0 W/m2
14:17 89.6 °F /  32 °C 45.7 °F /  7.6 °C 29.60in /  1002.3hPa SSW 4.0mph /  6.4km/h 4.0mph /  6.4km/h 22% 0.00in /  0mm 1118.0 W/m2
14:23 89.8 °F /  32.1 °C 44.6 °F /  7 °C 29.59in /  1001.9hPa SSW 2.0mph /  3.2km/h 6.0mph /  9.7km/h 21% 0.00in /  0mm 1165.0 W/m2
14:28 89.8 °F /  32.1 °C 44.6 °F /  7 °C 29.59in /  1001.9hPa SSW 2.9mph /  4.7km/h 8.0mph /  12.9km/h 21% 0.00in /  0mm 1165.0 W/m2
14:33 90.3 °F /  32.4 °C 45.1 °F /  7.3 °C 29.59in /  1001.9hPa SE 4.9mph /  7.9km/h 8.0mph /  12.9km/h 21% 0.00in /  0mm 1072.0 W/m2
14:38 91.0 °F /  32.8 °C 44.4 °F /  6.9 °C 29.59in /  1001.9hPa Calm   3.0mph /  4.8km/h 20% 0.00in /  0mm 211.0 W/m2
14:43 91.0 °F /  32.8 °C 44.4 °F /  6.9 °C 29.59in /  1001.9hPa WSW 4.9mph /  7.9km/h 5.0mph /  8km/h 20% 0.00in /  0mm 1095.0 W/m2
14:48 91.2 °F /  32.9 °C 44.6 °F /  7 °C 29.58in /  1001.6hPa Calm   6.0mph /  9.7km/h 20% 0.00in /  0mm 1081.0 W/m2
14:53 91.9 °F /  33.3 °C 43.7 °F /  6.5 °C 29.58in /  1001.6hPa SW 4.9mph /  7.9km/h 8.0mph /  12.9km/h 19% 0.00in /  0mm 1078.0 W/m2
14:58 92.3 °F /  33.5 °C 44.1 °F /  6.7 °C 29.58in /  1001.6hPa WSW 4.0mph /  6.4km/h 8.0mph /  12.9km/h 19% 0.00in /  0mm 1055.0 W/m2
15:03 92.7 °F /  33.7 °C 44.4 °F /  6.9 °C 29.58in /  1001.6hPa South 0.9mph /  1.4km/h 4.0mph /  6.4km/h 19% 0.00in /  0mm 1027.0 W/m2
15:09 92.7 °F /  33.7 °C 43.0 °F /  6.1 °C 29.57in /  1001.2hPa ENE 0.9mph /  1.4km/h 3.0mph /  4.8km/h 18% 0.00in /  0mm 1072.0 W/m2
15:14 92.7 °F /  33.7 °C 44.4 °F /  6.9 °C 29.57in /  1001.2hPa WSW 2.0mph /  3.2km/h 7.0mph /  11.3km/h 19% 0.00in /  0mm 990.0 W/m2
15:19 93.0 °F /  33.9 °C 44.6 °F /  7 °C 29.57in /  1001.2hPa West 8.9mph /  14.3km/h 11.0mph /  17.7km/h 19% 0.00in /  0mm 1002.0 W/m2
15:24 92.8 °F /  33.8 °C 44.6 °F /  7 °C 29.57in /  1001.2hPa SW 4.9mph /  7.9km/h 9.0mph /  14.5km/h 19% 0.00in /  0mm 981.0 W/m2
15:29 92.5 °F /  33.6 °C 44.2 °F /  6.8 °C 29.56in /  1000.9hPa SSE 2.9mph /  4.7km/h 6.0mph /  9.7km/h 19% 0.00in /  0mm 967.0 W/m2
15:34 92.3 °F /  33.5 °C 44.1 °F /  6.7 °C 29.56in /  1000.9hPa WSW 2.0mph /  3.2km/h 9.0mph /  14.5km/h 19% 0.00in /  0mm 942.0 W/m2
15:39 92.5 °F /  33.6 °C 44.2 °F /  6.8 °C 29.56in /  1000.9hPa West 8.1mph /  13km/h 12.0mph /  19.3km/h 19% 0.00in /  0mm 960.0 W/m2
15:44 92.5 °F /  33.6 °C 44.2 °F /  6.8 °C 29.56in /  1000.9hPa WSW 2.9mph /  4.7km/h 7.0mph /  11.3km/h 19% 0.00in /  0mm 956.0 W/m2
15:49 92.7 °F /  33.7 °C 43.0 °F /  6.1 °C 29.56in /  1000.9hPa SE 2.0mph /  3.2km/h 3.0mph /  4.8km/h 18% 0.00in /  0mm 923.0 W/m2
15:54 93.4 °F /  34.1 °C 43.5 °F /  6.4 °C 29.56in /  1000.9hPa Calm   5.0mph /  8km/h 18% 0.00in /  0mm 912.0 W/m2
16:00 92.5 °F /  33.6 °C 42.8 °F /  6 °C 29.56in /  1000.9hPa Calm   5.0mph /  8km/h 18% 0.00in /  0mm 188.0 W/m2
16:05 90.9 °F /  32.7 °C 44.2 °F /  6.8 °C 29.56in /  1000.9hPa South 2.9mph /  4.7km/h 5.0mph /  8km/h 20% 0.00in /  0mm 195.0 W/m2
16:10 90.1 °F /  32.3 °C 43.7 °F /  6.5 °C 29.55in /  1000.6hPa SSW 2.9mph /  4.7km/h 4.0mph /  6.4km/h 20% 0.00in /  0mm 216.0 W/m2
16:15 90.1 °F /  32.3 °C 43.7 °F /  6.5 °C 29.55in /  1000.6hPa Calm   3.0mph /  4.8km/h 20% 0.00in /  0mm 831.0 W/m2
16:20 91.2 °F /  32.9 °C 44.6 °F /  7 °C 29.55in /  1000.6hPa SE 0.9mph /  1.4km/h 3.0mph /  4.8km/h 20% 0.00in /  0mm 555.0 W/m2
16:25 92.1 °F /  33.4 °C 43.9 °F /  6.6 °C 29.55in /  1000.6hPa SSE 0.9mph /  1.4km/h 8.0mph /  12.9km/h 19% 0.00in /  0mm 487.0 W/m2
16:30 92.7 °F /  33.7 °C 44.4 °F /  6.9 °C 29.54in /  1000.2hPa SSW 4.9mph /  7.9km/h 8.0mph /  12.9km/h 19% 0.00in /  0mm 759.0 W/m2
16:35 92.5 °F /  33.6 °C 44.2 °F /  6.8 °C 29.54in /  1000.2hPa Calm   4.0mph /  6.4km/h 19% 0.00in /  0mm 206.0 W/m2
16:40 91.6 °F /  33.1 °C 43.5 °F /  6.4 °C 29.55in /  1000.6hPa Calm   4.0mph /  6.4km/h 19% 0.00in /  0mm 176.0 W/m2
16:46 90.3 °F /  32.4 °C 43.9 °F /  6.6 °C 29.55in /  1000.6hPa South 0.9mph /  1.4km/h 6.0mph /  9.7km/h 20% 0.00in /  0mm 142.0 W/m2
16:51 90.0 °F /  32.2 °C 43.5 °F /  6.4 °C 29.55in /  1000.6hPa Calm   3.0mph /  4.8km/h 20% 0.00in /  0mm 171.0 W/m2
16:57 90.1 °F /  32.3 °C 43.7 °F /  6.5 °C 29.54in /  1000.2hPa SSW 0.9mph /  1.4km/h 2.0mph /  3.2km/h 20% 0.00in /  0mm 165.0 W/m2
17:02 90.1 °F /  32.3 °C 43.7 °F /  6.5 °C 29.54in /  1000.2hPa SW 2.0mph /  3.2km/h 7.0mph /  11.3km/h 20% 0.00in /  0mm 137.0 W/m2
17:07 89.8 °F /  32.1 °C 43.3 °F /  6.3 °C 29.54in /  1000.2hPa South 4.9mph /  7.9km/h 8.0mph /  12.9km/h 20% 0.00in /  0mm 141.0 W/m2
17:12 89.2 °F /  31.8 °C 43.0 °F /  6.1 °C 29.54in /  1000.2hPa SSW 0.9mph /  1.4km/h 3.0mph /  4.8km/h 20% 0.00in /  0mm 132.0 W/m2
17:17 88.9 °F /  31.6 °C 43.9 °F /  6.6 °C 29.54in /  1000.2hPa South 4.0mph /  6.4km/h 5.0mph /  8km/h 21% 0.00in /  0mm 128.0 W/m2
17:22 88.3 °F /  31.3 °C 43.5 °F /  6.4 °C 29.54in /  1000.2hPa SSW 4.0mph /  6.4km/h 5.0mph /  8km/h 21% 0.00in /  0mm 118.0 W/m2
17:27 88.2 °F /  31.2 °C 43.3 °F /  6.3 °C 29.54in /  1000.2hPa Calm   5.0mph /  8km/h 21% 0.00in /  0mm 104.0 W/m2
17:32 88.2 °F /  31.2 °C 43.3 °F /  6.3 °C 29.54in /  1000.2hPa SSW 2.9mph /  4.7km/h 4.0mph /  6.4km/h 21% 0.00in /  0mm 95.0 W/m2
17:37 88.0 °F /  31.1 °C 43.2 °F /  6.2 °C 29.54in /  1000.2hPa SSW 2.0mph /  3.2km/h 5.0mph /  8km/h 21% 0.00in /  0mm 90.0 W/m2
17:42 87.6 °F /  30.9 °C 42.8 °F /  6 °C 29.54in /  1000.2hPa SSW 2.0mph /  3.2km/h 2.0mph /  3.2km/h 21% 0.00in /  0mm 81.0 W/m2
17:47 87.4 °F /  30.8 °C 42.8 °F /  6 °C 29.55in /  1000.6hPa Calm   4.0mph /  6.4km/h 21% 0.00in /  0mm 77.0 W/m2
17:53 87.4 °F /  30.8 °C 42.8 °F /  6 °C 29.54in /  1000.2hPa Calm     21% 0.00in /  0mm 77.0 W/m2
17:58 87.3 °F /  30.7 °C 42.6 °F /  5.9 °C 29.55in /  1000.6hPa Calm     21% 0.00in /  0mm 74.0 W/m2
18:03 87.3 °F /  30.7 °C 42.6 °F /  5.9 °C 29.55in /  1000.6hPa Calm   4.0mph /  6.4km/h 21% 0.00in /  0mm 67.0 W/m2
18:08 87.3 °F /  30.7 °C 42.6 °F /  5.9 °C 29.55in /  1000.6hPa Calm   2.0mph /  3.2km/h 21% 0.00in /  0mm 62.0 W/m2
18:13 87.3 °F /  30.7 °C 42.6 °F /  5.9 °C 29.54in /  1000.2hPa SSE 2.0mph /  3.2km/h 3.0mph /  4.8km/h 21% 0.00in /  0mm 53.0 W/m2
18:19 87.3 °F /  30.7 °C 42.6 °F /  5.9 °C 29.54in /  1000.2hPa SE 0.9mph /  1.4km/h 3.0mph /  4.8km/h 21% 0.00in /  0mm 46.0 W/m2
18:24 87.3 °F /  30.7 °C 42.6 °F /  5.9 °C 29.54in /  1000.2hPa SE 2.0mph /  3.2km/h 4.0mph /  6.4km/h 21% 0.00in /  0mm 42.0 W/m2
18:29 87.3 °F /  30.7 °C 42.6 °F /  5.9 °C 29.55in /  1000.6hPa Calm     21% 0.00in /  0mm 49.0 W/m2
18:34 87.3 °F /  30.7 °C 42.6 °F /  5.9 °C 29.55in /  1000.6hPa Calm     21% 0.00in /  0mm 49.0 W/m2
18:39 87.3 °F /  30.7 °C 42.6 °F /  5.9 °C 29.55in /  1000.6hPa Calm   1.0mph /  1.6km/h 21% 0.00in /  0mm 49.0 W/m2
18:45 87.3 °F /  30.7 °C 42.6 °F /  5.9 °C 29.55in /  1000.6hPa Calm     21% 0.00in /  0mm 97.0 W/m2
18:50 87.4 °F /  30.8 °C 42.8 °F /  6 °C 29.55in /  1000.6hPa Calm   1.0mph /  1.6km/h 21% 0.00in /  0mm 114.0 W/m2
18:55 88.0 °F /  31.1 °C 43.2 °F /  6.2 °C 29.55in /  1000.6hPa Calm   1.0mph /  1.6km/h 21% 0.00in /  0mm 40.0 W/m2
19:00 88.0 °F /  31.1 °C 43.2 °F /  6.2 °C 29.55in /  1000.6hPa Calm   2.0mph /  3.2km/h 21% 0.00in /  0mm 47.0 W/m2
19:05 88.2 °F /  31.2 °C 43.3 °F /  6.3 °C 29.55in /  1000.6hPa Calm   1.0mph /  1.6km/h 21% 0.00in /  0mm 46.0 W/m2
19:10 88.3 °F /  31.3 °C 42.3 °F /  5.7 °C 29.56in /  1000.9hPa Calm   1.0mph /  1.6km/h 20% 0.00in /  0mm 39.0 W/m2
19:15 88.3 °F /  31.3 °C 39.4 °F /  4.1 °C 29.57in /  1001.2hPa West 2.0mph /  3.2km/h 8.0mph /  12.9km/h 18% 0.00in /  0mm 33.0 W/m2
19:20 87.6 °F /  30.9 °C 37.4 °F /  3 °C 29.57in /  1001.2hPa WSW 9.0mph /  14.5km/h 9.0mph /  14.5km/h 17% 0.00in /  0mm 26.0 W/m2
19:25 86.5 °F /  30.3 °C 37.9 °F /  3.3 °C 29.57in /  1001.2hPa WSW 2.9mph /  4.7km/h 10.0mph /  16.1km/h 18% 0.00in /  0mm 19.0 W/m2
19:31 85.6 °F /  29.8 °C 37.2 °F /  2.9 °C 29.58in /  1001.6hPa SW 6.0mph /  9.7km/h 9.0mph /  14.5km/h 18% 0.00in /  0mm 12.0 W/m2
19:37 85.1 °F /  29.5 °C 38.1 °F /  3.4 °C 29.58in /  1001.6hPa SSW 4.9mph /  7.9km/h 10.0mph /  16.1km/h 19% 0.00in /  0mm 7.0 W/m2
19:42 84.6 °F /  29.2 °C 37.8 °F /  3.2 °C 29.58in /  1001.6hPa SW 0.9mph /  1.4km/h 11.0mph /  17.7km/h 19% 0.00in /  0mm 5.0 W/m2
19:47 84.0 °F /  28.9 °C 37.4 °F /  3 °C 29.59in /  1001.9hPa South 2.0mph /  3.2km/h 10.0mph /  16.1km/h 19% 0.00in /  0mm 0.0 W/m2
19:52 83.8 °F /  28.8 °C 37.2 °F /  2.9 °C 29.59in /  1001.9hPa WSW 8.9mph /  14.3km/h 9.0mph /  14.5km/h 19% 0.00in /  0mm 0.0 W/m2
19:57 83.5 °F /  28.6 °C 36.9 °F /  2.7 °C 29.59in /  1001.9hPa West 2.9mph /  4.7km/h 8.0mph /  12.9km/h 19% 0.00in /  0mm 0.0 W/m2
20:03 83.5 °F /  28.6 °C 38.1 °F /  3.4 °C 29.59in /  1001.9hPa WNW 4.9mph /  7.9km/h 9.0mph /  14.5km/h 20% 0.00in /  0mm 0.0 W/m2
20:08 83.1 °F /  28.4 °C 37.9 °F /  3.3 °C 29.60in /  1002.3hPa SW 2.0mph /  3.2km/h 5.0mph /  8km/h 20% 0.00in /  0mm 0.0 W/m2
20:13 83.1 °F /  28.4 °C 37.9 °F /  3.3 °C 29.61in /  1002.6hPa SSE 0.9mph /  1.4km/h 7.0mph /  11.3km/h 20% 0.00in /  0mm 0.0 W/m2
20:19 83.1 °F /  28.4 °C 44.6 °F /  7 °C 29.62in /  1002.9hPa SSE 0.9mph /  1.4km/h 3.0mph /  4.8km/h 26% 0.00in /  0mm 0.0 W/m2
20:25 82.9 °F /  28.3 °C 49.3 °F /  9.6 °C 29.62in /  1002.9hPa SE 6.0mph /  9.7km/h 9.0mph /  14.5km/h 31% 0.00in /  0mm 0.0 W/m2
20:30 82.4 °F /  28 °C 50.4 °F /  10.2 °C 29.62in /  1002.9hPa Calm   7.0mph /  11.3km/h 33% 0.00in /  0mm 0.0 W/m2
20:35 81.9 °F /  27.7 °C 50.7 °F /  10.4 °C 29.62in /  1002.9hPa Calm   4.0mph /  6.4km/h 34% 0.00in /  0mm 0.0 W/m2
20:40 81.1 °F /  27.3 °C 50.9 °F /  10.5 °C 29.62in /  1002.9hPa SE 2.0mph /  3.2km/h 6.0mph /  9.7km/h 35% 0.00in /  0mm 0.0 W/m2
20:45 80.8 °F /  27.1 °C 50.5 °F /  10.3 °C 29.62in /  1002.9hPa ESE 2.0mph /  3.2km/h 4.0mph /  6.4km/h 35% 0.00in /  0mm 0.0 W/m2
20:50 80.4 °F /  26.9 °C 51.1 °F /  10.6 °C 29.62in /  1002.9hPa SSE 2.0mph /  3.2km/h 8.0mph /  12.9km/h 36% 0.00in /  0mm 0.0 W/m2
20:55 80.1 °F /  26.7 °C 51.4 °F /  10.8 °C 29.62in /  1002.9hPa East 6.9mph /  11.1km/h 10.0mph /  16.1km/h 37% 0.00in /  0mm 0.0 W/m2
21:00 79.7 °F /  26.5 °C 51.1 °F /  10.6 °C 29.63in /  1003.3hPa ENE 4.9mph /  7.9km/h 6.0mph /  9.7km/h 37% 0.00in /  0mm 0.0 W/m2
21:05 79.3 °F /  26.3 °C 51.4 °F /  10.8 °C 29.63in /  1003.3hPa SSE 6.9mph /  11.1km/h 10.0mph /  16.1km/h 38% 0.00in /  0mm 0.0 W/m2
21:11 79.2 °F /  26.2 °C 52.2 °F /  11.2 °C 29.63in /  1003.3hPa NE 0.9mph /  1.4km/h 9.0mph /  14.5km/h 39% 0.00in /  0mm 0.0 W/m2
21:16 78.6 °F /  25.9 °C 51.6 °F /  10.9 °C 29.63in /  1003.3hPa ESE 6.0mph /  9.7km/h 8.0mph /  12.9km/h 39% 0.00in /  0mm 0.0 W/m2
21:21 78.4 °F /  25.8 °C 52.2 °F /  11.2 °C 29.63in /  1003.3hPa Calm   11.0mph /  17.7km/h 40% 0.00in /  0mm 0.0 W/m2
21:26 78.3 °F /  25.7 °C 52.0 °F /  11.1 °C 29.64in /  1003.6hPa East 4.9mph /  7.9km/h 8.0mph /  12.9km/h 40% 0.00in /  0mm 0.0 W/m2
21:31 77.9 °F /  25.5 °C 51.6 °F /  10.9 °C 29.64in /  1003.6hPa SSE 4.0mph /  6.4km/h 7.0mph /  11.3km/h 40% 0.00in /  0mm 0.0 W/m2
21:36 77.7 °F /  25.4 °C 51.4 °F /  10.8 °C 29.64in /  1003.6hPa NNE 0.9mph /  1.4km/h 6.0mph /  9.7km/h 40% 0.00in /  0mm 0.0 W/m2
21:41 77.4 °F /  25.2 °C 51.8 °F /  11 °C 29.64in /  1003.6hPa ENE 2.0mph /  3.2km/h 5.0mph /  8km/h 41% 0.00in /  0mm 0.0 W/m2
21:46 77.2 °F /  25.1 °C 51.6 °F /  10.9 °C 29.64in /  1003.6hPa SSE 0.9mph /  1.4km/h 5.0mph /  8km/h 41% 0.00in /  0mm 0.0 W/m2
21:51 77.2 °F /  25.1 °C 51.6 °F /  10.9 °C 29.64in /  1003.6hPa Calm   5.0mph /  8km/h 41% 0.00in /  0mm 0.0 W/m2
21:56 76.8 °F /  24.9 °C 52.0 °F /  11.1 °C 29.64in /  1003.6hPa ENE 2.9mph /  4.7km/h 6.0mph /  9.7km/h 42% 0.00in /  0mm 0.0 W/m2
22:01 76.6 °F /  24.8 °C 51.8 °F /  11 °C 29.65in /  1003.9hPa ESE 2.0mph /  3.2km/h 6.0mph /  9.7km/h 42% 0.00in /  0mm 0.0 W/m2
22:07 76.6 °F /  24.8 °C 51.8 °F /  11 °C 29.65in /  1003.9hPa SE 0.9mph /  1.4km/h 4.0mph /  6.4km/h 42% 0.00in /  0mm 0.0 W/m2
22:12 76.5 °F /  24.7 °C 51.6 °F /  10.9 °C 29.65in /  1003.9hPa Calm   3.0mph /  4.8km/h 42% 0.00in /  0mm 0.0 W/m2
22:17 76.5 °F /  24.7 °C 51.1 °F /  10.6 °C 29.65in /  1003.9hPa NE 0.9mph /  1.4km/h 1.0mph /  1.6km/h 41% 0.00in /  0mm 0.0 W/m2
22:22 76.5 °F /  24.7 °C 51.1 °F /  10.6 °C 29.65in /  1003.9hPa Calm   2.0mph /  3.2km/h 41% 0.00in /  0mm 0.0 W/m2
22:27 76.3 °F /  24.6 °C 50.9 °F /  10.5 °C 29.65in /  1003.9hPa Calm     41% 0.00in /  0mm 0.0 W/m2
22:32 76.3 °F /  24.6 °C 50.9 °F /  10.5 °C 29.65in /  1003.9hPa Calm   2.0mph /  3.2km/h 41% 0.00in /  0mm 0.0 W/m2
22:37 76.1 °F /  24.5 °C 50.7 °F /  10.4 °C 29.65in /  1003.9hPa Calm   2.0mph /  3.2km/h 41% 0.00in /  0mm 0.0 W/m2
22:42 75.9 °F /  24.4 °C 51.3 °F /  10.7 °C 29.66in /  1004.3hPa ESE 0.9mph /  1.4km/h 5.0mph /  8km/h 42% 0.00in /  0mm 0.0 W/m2
22:48 75.7 °F /  24.3 °C 51.1 °F /  10.6 °C 29.66in /  1004.3hPa SSE 0.9mph /  1.4km/h 4.0mph /  6.4km/h 42% 0.00in /  0mm 0.0 W/m2
22:53 75.7 °F /  24.3 °C 51.1 °F /  10.6 °C 29.66in /  1004.3hPa Calm   3.0mph /  4.8km/h 42% 0.00in /  0mm 0.0 W/m2
22:58 75.6 °F /  24.2 °C 50.9 °F /  10.5 °C 29.66in /  1004.3hPa Calm   2.0mph /  3.2km/h 42% 0.00in /  0mm 0.0 W/m2
23:03 75.6 °F /  24.2 °C 50.2 °F /  10.1 °C 29.66in /  1004.3hPa Calm   2.0mph /  3.2km/h 41% 0.00in /  0mm 0.0 W/m2
23:08 75.6 °F /  24.2 °C 50.2 °F /  10.1 °C 29.66in /  1004.3hPa Calm   3.0mph /  4.8km/h 41% 0.00in /  0mm 0.0 W/m2
23:13 75.6 °F /  24.2 °C 49.5 °F /  9.7 °C 29.66in /  1004.3hPa Calm   3.0mph /  4.8km/h 40% 0.00in /  0mm 0.0 W/m2
23:18 75.6 °F /  24.2 °C 49.5 °F /  9.7 °C 29.66in /  1004.3hPa Calm   3.0mph /  4.8km/h 40% 0.00in /  0mm 0.0 W/m2
23:23 75.6 °F /  24.2 °C 49.5 °F /  9.7 °C 29.66in /  1004.3hPa Calm   1.0mph /  1.6km/h 40% 0.00in /  0mm 0.0 W/m2
23:28 75.6 °F /  24.2 °C 49.5 °F /  9.7 °C 29.66in /  1004.3hPa SSE 0.9mph /  1.4km/h 2.0mph /  3.2km/h 40% 0.00in /  0mm 0.0 W/m2
23:33 75.4 °F /  24.1 °C 50.0 °F /  10 °C 29.66in /  1004.3hPa South 0.9mph /  1.4km/h 1.0mph /  1.6km/h 41% 0.00in /  0mm 0.0 W/m2
23:39 75.2 °F /  24 °C 49.8 °F /  9.9 °C 29.66in /  1004.3hPa Calm   2.0mph /  3.2km/h 41% 0.00in /  0mm 0.0 W/m2
23:44 74.8 °F /  23.8 °C 49.6 °F /  9.8 °C 29.66in /  1004.3hPa South 0.9mph /  1.4km/h 2.0mph /  3.2km/h 41% 0.00in /  0mm 0.0 W/m2
23:49 74.5 °F /  23.6 °C 49.3 °F /  9.6 °C 29.66in /  1004.3hPa South 0.9mph /  1.4km/h 1.0mph /  1.6km/h 41% 0.00in /  0mm 0.0 W/m2
23:54 74.1 °F /  23.4 °C 49.6 °F /  9.8 °C 29.67in /  1004.6hPa Calm   1.0mph /  1.6km/h 42% 0.00in /  0mm 0.0 W/m2
23:59 73.9 °F /  23.3 °C 49.5 °F /  9.7 °C 29.66in /  1004.3hPa Calm   1.0mph /  1.6km/h 42% 0.00in /  0mm 0.0 W/m2
Olympia, Windhoek, Namibia
Compliments of Weather Underground - 3.25 mb